CYYECYQH

Guest
Details From CYYE - FORT NELSON
To CYQH - WATSON LAKE
Flight Number -
Tags decoded
Created
Modified
Stats Distance 205 nm / 379 km
Max Altitude 0 ft / 0 m
Waypoints 2
Social Downloads 1
Likes 0
Share VATSIM

Download

Looking for another format? Having issues loading an existing format? Contact us
Advertisement - Login to hide

Notes

Requested: CYYE CYQH

Route

CYYE CYQH

ID Type Via Altitude Latitude Longitude Leg Dist Tot Dist Heading (true) Name
O CYYE APT - 0 ft / 0 m 58.83625˚ -122.59493˚ - 0 nm - FORT NELSON
O CYQH APT - 0 ft / 0 m 60.11750˚ -128.82056˚ 204 nm 204 nm 295° / 289° WATSON LAKE

Altitude Profile

Advertisement - Login to hide

Weather


0- 5 10 15 20 25 30 35+ Temperature / ° C

Clouds and Precipitation
Forecast for 2017-12-12 00:00 UTC. Updated 3 minutes ago

Ground ~20,000 ft ~40,000 ft Winds

CYYE

Details ICAO CYYE (YYE)
Name FORT NELSON
Region Canada
Timezone America/Vancouver (UTC-8.0)
Stats Elevation 1,253 ft / 382 m (AMSL)
Location 58.836250° -122.594928°
Runways 2
Magnetic Variation 18.703° E

METAR

CYYE 112300Z 00000KT 30SM FEW180 SCT220 BKN250 M04/M05 A2987 RMK AC1CC3CI2 AC TR SLP142

Decode

TAF

TAF TAF CYYE 111838Z 1119/1207 VRB03KT P6SM BKN160 FM120000 VRB03KT P6SM SKC RMK NXT FCST BY 120100Z

Decode

Departure Runways

ID Width Length Bearing (true) Bearing (mag) Surface Threshold Offset Overrun Length
03 200 ft / 61 m 6,365 ft / 1,940 m 57.20° 38.50° Asphalt 0 ft / 0 m 0 ft / 0 m
07 77 ft / 23 m 4,055 ft / 1,236 m 104.46° 85.76° Asphalt 0 ft / 0 m 500 ft / 152 m
21 200 ft / 61 m 6,365 ft / 1,940 m 237.23° 218.53° Asphalt 0 ft / 0 m 0 ft / 0 m
25 77 ft / 23 m 4,055 ft / 1,236 m 284.48° 265.78° Asphalt 0 ft / 0 m 0 ft / 0 m

CYQH

Details ICAO CYQH (YQH)
Name WATSON LAKE
Region Canada
Timezone America/Whitehorse (UTC-8.0)
Stats Elevation 2,255 ft / 687 m (AMSL)
Location 60.117502° -128.820560°
Runways 1
Magnetic Variation 19.791° E

METAR

CYQH 112300Z 09007KT 30SM SCT030 BKN084 M08/M09 A2984 RMK SC3AC3 SLP147

Decode

TAF

TAF CYQH 111738Z 1118/1206 29008KT P6SM SCT030 BKN080 TEMPO 1118/1122 BKN030 OVC080 FM120100 VRB03KT P6SM BKN050 OVC080 PROB30 1201/1206 P6SM -FZRA RMK NXT FCST BY 120000Z

Decode

Destination Runways

ID Width Length Bearing (true) Bearing (mag) Surface Threshold Offset Overrun Length
08 150 ft / 46 m 5,462 ft / 1,665 m 109.49° 89.70° Asphalt 0 ft / 0 m 0 ft / 0 m
26 150 ft / 46 m 5,462 ft / 1,665 m 289.51° 269.72° Asphalt 0 ft / 0 m 0 ft / 0 m